sensor_id;sensor_type;location;lat;lon;timestamp;P1;durP1;ratioP1;P2;durP2;ratioP2
1779;SDS011;10019;46.670;14.260;2022-10-04T00:01:42;2.90;;;2.70;;
1779;SDS011;10019;46.670;14.260;2022-10-04T00:04:18;3.50;;;2.70;;
1779;SDS011;10019;46.670;14.260;2022-10-04T00:06:55;3.80;;;2.90;;
1779;SDS011;10019;46.670;14.260;2022-10-04T00:09:32;4.13;;;2.63;;
1779;SDS011;10019;46.670;14.260;2022-10-04T00:12:05;3.47;;;3.00;;
1779;SDS011;10019;46.670;14.260;2022-10-04T00:14:37;6.90;;;2.93;;
1779;SDS011;10019;46.670;14.260;2022-10-04T00:17:11;5.57;;;3.37;;
1779;SDS011;10019;46.670;14.260;2022-10-04T00:19:44;4.00;;;2.90;;
1779;SDS011;10019;46.670;14.260;2022-10-04T00:22:17;4.50;;;2.80;;
1779;SDS011;10019;46.670;14.260;2022-10-04T00:25:12;4.13;;;3.27;;
1779;SDS011;10019;46.670;14.260;2022-10-04T00:31:17;4.67;;;3.10;;
1779;SDS011;10019;46.670;14.260;2022-10-04T00:33:52;2.93;;;2.60;;
1779;SDS011;10019;46.670;14.260;2022-10-04T00:36:36;3.20;;;2.73;;
1779;SDS011;10019;46.670;14.260;2022-10-04T00:39:17;3.20;;;2.90;;
1779;SDS011;10019;46.670;14.260;2022-10-04T00:42:04;3.33;;;2.73;;
1779;SDS011;10019;46.670;14.260;2022-10-04T00:44:52;8.10;;;2.80;;
1779;SDS011;10019;46.670;14.260;2022-10-04T00:47:28;5.23;;;3.10;;
1779;SDS011;10019;46.670;14.260;2022-10-04T00:50:05;4.37;;;3.27;;
1779;SDS011;10019;46.670;14.260;2022-10-04T00:52:43;3.73;;;3.20;;
1779;SDS011;10019;46.670;14.260;2022-10-04T00:55:18;3.30;;;2.73;;
1779;SDS011;10019;46.670;14.260;2022-10-04T00:57:56;4.17;;;3.13;;
1779;SDS011;10019;46.670;14.260;2022-10-04T01:00:30;4.10;;;3.20;;
1779;SDS011;10019;46.670;14.260;2022-10-04T01:03:03;5.00;;;3.10;;
1779;SDS011;10019;46.670;14.260;2022-10-04T01:05:37;3.20;;;2.90;;
1779;SDS011;10019;46.670;14.260;2022-10-04T01:08:11;4.63;;;3.50;;
1779;SDS011;10019;46.670;14.260;2022-10-04T01:10:44;3.30;;;3.00;;
1779;SDS011;10019;46.670;14.260;2022-10-04T01:13:19;4.13;;;3.20;;
1779;SDS011;10019;46.670;14.260;2022-10-04T01:15:55;4.43;;;3.00;;
1779;SDS011;10019;46.670;14.260;2022-10-04T01:18:30;4.43;;;3.10;;
1779;SDS011;10019;46.670;14.260;2022-10-04T01:21:04;5.60;;;3.37;;
1779;SDS011;10019;46.670;14.260;2022-10-04T01:23:43;3.23;;;2.60;;
1779;SDS011;10019;46.670;14.260;2022-10-04T01:26:36;4.67;;;2.87;;
1779;SDS011;10019;46.670;14.260;2022-10-04T01:29:11;6.50;;;3.10;;
1779;SDS011;10019;46.670;14.260;2022-10-04T01:31:45;4.93;;;3.20;;
1779;SDS011;10019;46.670;14.260;2022-10-04T01:34:18;4.00;;;3.20;;
1779;SDS011;10019;46.670;14.260;2022-10-04T01:36:51;3.50;;;2.80;;
1779;SDS011;10019;46.670;14.260;2022-10-04T01:39:26;3.27;;;2.80;;
1779;SDS011;10019;46.670;14.260;2022-10-04T01:41:59;7.33;;;3.13;;
1779;SDS011;10019;46.670;14.260;2022-10-04T01:44:35;5.23;;;3.50;;
1779;SDS011;10019;46.670;14.260;2022-10-04T01:47:10;4.23;;;3.20;;
1779;SDS011;10019;46.670;14.260;2022-10-04T01:49:45;3.50;;;3.20;;
1779;SDS011;10019;46.670;14.260;2022-10-04T01:52:18;4.60;;;3.50;;
1779;SDS011;10019;46.670;14.260;2022-10-04T01:54:57;6.00;;;3.37;;
1779;SDS011;10019;46.670;14.260;2022-10-04T01:57:32;5.20;;;3.30;;
1779;SDS011;10019;46.670;14.260;2022-10-04T02:00:06;5.47;;;3.60;;
1779;SDS011;10019;46.670;14.260;2022-10-04T02:02:43;16.80;;;3.27;;
1779;SDS011;10019;46.670;14.260;2022-10-04T02:05:18;3.93;;;3.23;;
1779;SDS011;10019;46.670;14.260;2022-10-04T02:08:00;6.30;;;3.60;;
1779;SDS011;10019;46.670;14.260;2022-10-04T02:10:34;4.00;;;3.33;;
1779;SDS011;10019;46.670;14.260;2022-10-04T02:13:09;4.93;;;3.10;;
1779;SDS011;10019;46.670;14.260;2022-10-04T02:15:44;3.83;;;3.20;;
1779;SDS011;10019;46.670;14.260;2022-10-04T02:18:17;3.83;;;2.70;;
1779;SDS011;10019;46.670;14.260;2022-10-04T02:20:50;4.50;;;3.70;;
1779;SDS011;10019;46.670;14.260;2022-10-04T02:23:24;5.10;;;3.40;;
1779;SDS011;10019;46.670;14.260;2022-10-04T02:25:57;5.47;;;3.17;;
1779;SDS011;10019;46.670;14.260;2022-10-04T02:28:30;4.10;;;2.87;;
1779;SDS011;10019;46.670;14.260;2022-10-04T02:31:03;5.17;;;3.17;;
1779;SDS011;10019;46.670;14.260;2022-10-04T02:33:54;5.97;;;3.10;;
1779;SDS011;10019;46.670;14.260;2022-10-04T02:36:27;3.80;;;3.00;;
1779;SDS011;10019;46.670;14.260;2022-10-04T02:39:00;3.70;;;3.00;;
1779;SDS011;10019;46.670;14.260;2022-10-04T02:41:36;3.50;;;2.93;;
1779;SDS011;10019;46.670;14.260;2022-10-04T02:44:10;3.90;;;3.00;;
1779;SDS011;10019;46.670;14.260;2022-10-04T02:46:47;6.37;;;2.90;;
1779;SDS011;10019;46.670;14.260;2022-10-04T02:49:23;4.30;;;3.20;;
1779;SDS011;10019;46.670;14.260;2022-10-04T02:52:00;4.63;;;3.30;;
1779;SDS011;10019;46.670;14.260;2022-10-04T02:54:35;4.77;;;3.23;;
1779;SDS011;10019;46.670;14.260;2022-10-04T02:57:14;4.93;;;3.13;;
1779;SDS011;10019;46.670;14.260;2022-10-04T02:59:47;3.30;;;2.80;;
1779;SDS011;10019;46.670;14.260;2022-10-04T03:02:21;6.07;;;2.97;;
1779;SDS011;10019;46.670;14.260;2022-10-04T03:04:55;3.20;;;2.73;;
1779;SDS011;10019;46.670;14.260;2022-10-04T03:07:30;3.97;;;2.90;;
1779;SDS011;10019;46.670;14.260;2022-10-04T03:10:04;4.50;;;2.90;;
1779;SDS011;10019;46.670;14.260;2022-10-04T03:12:39;5.20;;;3.43;;
1779;SDS011;10019;46.670;14.260;2022-10-04T03:15:11;4.67;;;3.37;;
1779;SDS011;10019;46.670;14.260;2022-10-04T03:17:44;4.30;;;2.93;;
1779;SDS011;10019;46.670;14.260;2022-10-04T03:20:16;3.60;;;2.70;;
1779;SDS011;10019;46.670;14.260;2022-10-04T03:22:52;3.17;;;2.83;;
1779;SDS011;10019;46.670;14.260;2022-10-04T03:25:25;3.40;;;2.93;;
1779;SDS011;10019;46.670;14.260;2022-10-04T03:28:01;3.90;;;3.60;;
1779;SDS011;10019;46.670;14.260;2022-10-04T03:30:34;3.73;;;3.00;;
1779;SDS011;10019;46.670;14.260;2022-10-04T03:33:06;4.40;;;3.33;;
1779;SDS011;10019;46.670;14.260;2022-10-04T03:35:38;3.90;;;3.23;;
1779;SDS011;10019;46.670;14.260;2022-10-04T03:38:10;4.27;;;3.23;;
1779;SDS011;10019;46.670;14.260;2022-10-04T03:40:45;5.30;;;3.27;;
1779;SDS011;10019;46.670;14.260;2022-10-04T03:43:22;3.90;;;3.07;;
1779;SDS011;10019;46.670;14.260;2022-10-04T03:45:56;4.10;;;2.83;;
1779;SDS011;10019;46.670;14.260;2022-10-04T03:48:31;5.50;;;4.43;;
1779;SDS011;10019;46.670;14.260;2022-10-04T03:51:05;5.00;;;3.20;;
1779;SDS011;10019;46.670;14.260;2022-10-04T03:53:39;4.10;;;2.77;;
1779;SDS011;10019;46.670;14.260;2022-10-04T03:56:15;3.07;;;2.70;;
1779;SDS011;10019;46.670;14.260;2022-10-04T03:58:50;5.37;;;3.00;;
1779;SDS011;10019;46.670;14.260;2022-10-04T04:04:17;4.23;;;3.03;;
1779;SDS011;10019;46.670;14.260;2022-10-04T04:06:53;3.50;;;2.97;;
1779;SDS011;10019;46.670;14.260;2022-10-04T04:09:33;5.03;;;3.70;;
1779;SDS011;10019;46.670;14.260;2022-10-04T04:12:09;7.00;;;3.07;;
1779;SDS011;10019;46.670;14.260;2022-10-04T04:14:45;4.90;;;3.40;;
1779;SDS011;10019;46.670;14.260;2022-10-04T04:17:32;10.37;;;5.40;;
1779;SDS011;10019;46.670;14.260;2022-10-04T04:20:17;13.30;;;3.70;;
1779;SDS011;10019;46.670;14.260;2022-10-04T04:22:55;5.93;;;3.40;;
1779;SDS011;10019;46.670;14.260;2022-10-04T04:25:31;6.50;;;3.20;;
1779;SDS011;10019;46.670;14.260;2022-10-04T04:28:09;4.37;;;3.97;;
1779;SDS011;10019;46.670;14.260;2022-10-04T04:30:48;3.70;;;3.10;;
1779;SDS011;10019;46.670;14.260;2022-10-04T04:33:24;3.90;;;3.00;;
1779;SDS011;10019;46.670;14.260;2022-10-04T04:36:02;3.77;;;3.43;;
1779;SDS011;10019;46.670;14.260;2022-10-04T04:38:35;7.67;;;3.17;;
1779;SDS011;10019;46.670;14.260;2022-10-04T04:41:28;4.70;;;3.07;;
1779;SDS011;10019;46.670;14.260;2022-10-04T04:44:01;7.20;;;3.10;;
1779;SDS011;10019;46.670;14.260;2022-10-04T04:46:35;3.40;;;3.10;;
1779;SDS011;10019;46.670;14.260;2022-10-04T04:49:09;3.00;;;2.70;;
1779;SDS011;10019;46.670;14.260;2022-10-04T04:51:45;3.40;;;3.10;;
1779;SDS011;10019;46.670;14.260;2022-10-04T04:54:19;5.00;;;3.13;;
1779;SDS011;10019;46.670;14.260;2022-10-04T04:56:53;3.93;;;3.30;;
1779;SDS011;10019;46.670;14.260;2022-10-04T04:59:26;4.33;;;2.77;;
1779;SDS011;10019;46.670;14.260;2022-10-04T05:01:59;5.23;;;3.30;;
1779;SDS011;10019;46.670;14.260;2022-10-04T05:04:32;4.87;;;3.70;;
1779;SDS011;10019;46.670;14.260;2022-10-04T05:07:04;3.87;;;2.93;;
1779;SDS011;10019;46.670;14.260;2022-10-04T05:09:45;3.87;;;3.47;;
1779;SDS011;10019;46.670;14.260;2022-10-04T05:12:17;4.30;;;3.70;;
1779;SDS011;10019;46.670;14.260;2022-10-04T05:14:50;4.73;;;3.67;;
1779;SDS011;10019;46.670;14.260;2022-10-04T05:17:24;5.23;;;3.50;;
1779;SDS011;10019;46.670;14.260;2022-10-04T05:20:01;7.87;;;3.57;;
1779;SDS011;10019;46.670;14.260;2022-10-04T05:22:34;4.37;;;3.70;;
1779;SDS011;10019;46.670;14.260;2022-10-04T05:25:08;3.60;;;3.30;;
1779;SDS011;10019;46.670;14.260;2022-10-04T05:27:45;9.00;;;3.77;;
1779;SDS011;10019;46.670;14.260;2022-10-04T05:30:22;3.90;;;3.50;;
1779;SDS011;10019;46.670;14.260;2022-10-04T05:33:05;4.83;;;3.40;;
1779;SDS011;10019;46.670;14.260;2022-10-04T05:35:41;3.93;;;3.00;;
1779;SDS011;10019;46.670;14.260;2022-10-04T05:38:17;4.47;;;3.20;;
1779;SDS011;10019;46.670;14.260;2022-10-04T05:40:54;6.77;;;4.00;;
1779;SDS011;10019;46.670;14.260;2022-10-04T05:43:31;4.00;;;3.57;;
1779;SDS011;10019;46.670;14.260;2022-10-04T05:46:12;7.53;;;3.37;;
1779;SDS011;10019;46.670;14.260;2022-10-04T05:48:51;5.20;;;3.53;;
1779;SDS011;10019;46.670;14.260;2022-10-04T05:51:25;5.97;;;4.27;;
1779;SDS011;10019;46.670;14.260;2022-10-04T05:53:59;5.83;;;3.77;;
1779;SDS011;10019;46.670;14.260;2022-10-04T05:59:37;10.20;;;4.50;;
1779;SDS011;10019;46.670;14.260;2022-10-04T06:02:20;4.50;;;3.90;;
1779;SDS011;10019;46.670;14.260;2022-10-04T06:05:05;6.03;;;4.20;;
1779;SDS011;10019;46.670;14.260;2022-10-04T06:07:40;6.23;;;4.57;;
1779;SDS011;10019;46.670;14.260;2022-10-04T06:10:20;4.70;;;4.13;;
1779;SDS011;10019;46.670;14.260;2022-10-04T06:13:14;8.87;;;5.23;;
1779;SDS011;10019;46.670;14.260;2022-10-04T06:15:56;4.53;;;3.57;;
1779;SDS011;10019;46.670;14.260;2022-10-04T06:18:59;4.07;;;3.50;;
1779;SDS011;10019;46.670;14.260;2022-10-04T06:21:42;3.97;;;3.53;;
1779;SDS011;10019;46.670;14.260;2022-10-04T06:24:17;5.60;;;4.30;;
1779;SDS011;10019;46.670;14.260;2022-10-04T06:26:53;5.67;;;4.43;;
1779;SDS011;10019;46.670;14.260;2022-10-04T06:29:28;10.23;;;5.20;;
1779;SDS011;10019;46.670;14.260;2022-10-04T06:32:14;5.73;;;4.37;;
1779;SDS011;10019;46.670;14.260;2022-10-04T06:35:07;5.07;;;4.37;;
1779;SDS011;10019;46.670;14.260;2022-10-04T06:38:14;6.97;;;5.10;;
1779;SDS011;10019;46.670;14.260;2022-10-04T06:41:34;5.93;;;4.40;;
1779;SDS011;10019;46.670;14.260;2022-10-04T06:44:42;7.80;;;5.20;;
1779;SDS011;10019;46.670;14.260;2022-10-04T06:47:25;7.93;;;5.30;;
1779;SDS011;10019;46.670;14.260;2022-10-04T06:50:09;7.83;;;5.87;;
1779;SDS011;10019;46.670;14.260;2022-10-04T06:52:48;8.87;;;5.80;;
1779;SDS011;10019;46.670;14.260;2022-10-04T06:55:35;9.57;;;6.27;;
1779;SDS011;10019;46.670;14.260;2022-10-04T06:58:28;7.70;;;5.70;;
1779;SDS011;10019;46.670;14.260;2022-10-04T07:01:14;7.37;;;5.27;;
1779;SDS011;10019;46.670;14.260;2022-10-04T07:03:54;7.23;;;5.50;;
1779;SDS011;10019;46.670;14.260;2022-10-04T07:06:34;6.53;;;5.73;;
1779;SDS011;10019;46.670;14.260;2022-10-04T07:09:12;7.47;;;6.40;;
1779;SDS011;10019;46.670;14.260;2022-10-04T07:11:52;6.03;;;5.30;;
1779;SDS011;10019;46.670;14.260;2022-10-04T07:14:26;8.30;;;6.47;;
1779;SDS011;10019;46.670;14.260;2022-10-04T07:17:00;7.40;;;5.77;;
1779;SDS011;10019;46.670;14.260;2022-10-04T07:19:35;6.40;;;5.37;;
1779;SDS011;10019;46.670;14.260;2022-10-04T07:22:12;8.13;;;6.77;;
1779;SDS011;10019;46.670;14.260;2022-10-04T07:24:50;7.83;;;5.90;;
1779;SDS011;10019;46.670;14.260;2022-10-04T07:27:29;9.77;;;7.33;;
1779;SDS011;10019;46.670;14.260;2022-10-04T07:30:04;10.27;;;6.73;;
1779;SDS011;10019;46.670;14.260;2022-10-04T07:32:36;8.70;;;6.47;;
1779;SDS011;10019;46.670;14.260;2022-10-04T07:35:12;7.60;;;6.03;;
1779;SDS011;10019;46.670;14.260;2022-10-04T07:37:50;8.00;;;6.17;;
1779;SDS011;10019;46.670;14.260;2022-10-04T07:40:24;9.23;;;6.90;;
1779;SDS011;10019;46.670;14.260;2022-10-04T07:43:01;9.07;;;7.10;;
1779;SDS011;10019;46.670;14.260;2022-10-04T07:45:35;8.23;;;7.30;;
1779;SDS011;10019;46.670;14.260;2022-10-04T07:48:11;7.43;;;6.63;;
1779;SDS011;10019;46.670;14.260;2022-10-04T07:50:45;7.73;;;6.20;;
1779;SDS011;10019;46.670;14.260;2022-10-04T07:53:21;7.03;;;6.00;;
1779;SDS011;10019;46.670;14.260;2022-10-04T07:55:59;7.97;;;6.43;;
1779;SDS011;10019;46.670;14.260;2022-10-04T07:58:39;7.40;;;5.80;;
1779;SDS011;10019;46.670;14.260;2022-10-04T08:01:18;11.67;;;7.27;;
1779;SDS011;10019;46.670;14.260;2022-10-04T08:04:01;8.07;;;5.80;;
1779;SDS011;10019;46.670;14.260;2022-10-04T08:06:43;10.87;;;6.03;;
1779;SDS011;10019;46.670;14.260;2022-10-04T08:09:24;5.93;;;5.33;;
1779;SDS011;10019;46.670;14.260;2022-10-04T08:12:05;5.00;;;4.47;;
1779;SDS011;10019;46.670;14.260;2022-10-04T08:14:49;4.80;;;4.20;;
1779;SDS011;10019;46.670;14.260;2022-10-04T08:17:31;5.20;;;4.40;;
1779;SDS011;10019;46.670;14.260;2022-10-04T08:20:23;7.17;;;4.87;;
1779;SDS011;10019;46.670;14.260;2022-10-04T08:23:06;4.87;;;4.37;;
1779;SDS011;10019;46.670;14.260;2022-10-04T08:25:48;7.17;;;4.70;;
1779;SDS011;10019;46.670;14.260;2022-10-04T08:28:29;7.13;;;4.63;;
1779;SDS011;10019;46.670;14.260;2022-10-04T08:31:30;6.50;;;5.00;;
1779;SDS011;10019;46.670;14.260;2022-10-04T08:34:14;6.33;;;4.43;;
1779;SDS011;10019;46.670;14.260;2022-10-04T08:36:57;7.20;;;3.90;;
1779;SDS011;10019;46.670;14.260;2022-10-04T08:39:40;6.00;;;4.30;;
1779;SDS011;10019;46.670;14.260;2022-10-04T08:45:48;7.17;;;3.97;;
1779;SDS011;10019;46.670;14.260;2022-10-04T08:48:43;5.30;;;4.30;;
1779;SDS011;10019;46.670;14.260;2022-10-04T08:51:39;5.63;;;3.93;;
1779;SDS011;10019;46.670;14.260;2022-10-04T08:54:54;3.53;;;3.13;;
1779;SDS011;10019;46.670;14.260;2022-10-04T08:58:02;3.77;;;3.40;;
1779;SDS011;10019;46.670;14.260;2022-10-04T09:00:55;3.80;;;3.23;;
1779;SDS011;10019;46.670;14.260;2022-10-04T09:03:58;4.33;;;3.93;;
1779;SDS011;10019;46.670;14.260;2022-10-04T09:10:24;3.50;;;3.20;;
1779;SDS011;10019;46.670;14.260;2022-10-04T09:13:05;4.30;;;3.90;;
1779;SDS011;10019;46.670;14.260;2022-10-04T09:15:50;3.83;;;3.50;;
1779;SDS011;10019;46.670;14.260;2022-10-04T09:21:27;6.13;;;4.17;;
1779;SDS011;10019;46.670;14.260;2022-10-04T09:24:31;7.50;;;4.07;;
1779;SDS011;10019;46.670;14.260;2022-10-04T09:27:33;3.83;;;3.43;;
1779;SDS011;10019;46.670;14.260;2022-10-04T09:30:15;4.43;;;4.03;;
1779;SDS011;10019;46.670;14.260;2022-10-04T09:35:49;3.90;;;3.50;;
1779;SDS011;10019;46.670;14.260;2022-10-04T09:41:56;4.73;;;3.37;;
1779;SDS011;10019;46.670;14.260;2022-10-04T09:44:51;3.90;;;3.40;;
1779;SDS011;10019;46.670;14.260;2022-10-04T09:47:34;3.40;;;3.10;;
1779;SDS011;10019;46.670;14.260;2022-10-04T09:50:24;3.57;;;3.27;;
1779;SDS011;10019;46.670;14.260;2022-10-04T09:53:37;4.30;;;3.40;;
1779;SDS011;10019;46.670;14.260;2022-10-04T09:56:17;6.70;;;3.43;;
1779;SDS011;10019;46.670;14.260;2022-10-04T09:59:05;4.10;;;3.70;;
1779;SDS011;10019;46.670;14.260;2022-10-04T10:01:52;6.13;;;3.57;;
1779;SDS011;10019;46.670;14.260;2022-10-04T10:04:37;4.43;;;3.30;;
1779;SDS011;10019;46.670;14.260;2022-10-04T10:07:23;6.07;;;3.20;;
1779;SDS011;10019;46.670;14.260;2022-10-04T10:10:06;8.37;;;3.50;;
1779;SDS011;10019;46.670;14.260;2022-10-04T10:13:13;4.43;;;3.10;;
1779;SDS011;10019;46.670;14.260;2022-10-04T10:19:13;3.27;;;2.97;;
1779;SDS011;10019;46.670;14.260;2022-10-04T10:22:19;4.30;;;3.37;;
1779;SDS011;10019;46.670;14.260;2022-10-04T10:25:10;3.50;;;3.20;;
1779;SDS011;10019;46.670;14.260;2022-10-04T10:27:54;4.87;;;3.10;;
1779;SDS011;10019;46.670;14.260;2022-10-04T10:30:32;2.80;;;2.57;;
1779;SDS011;10019;46.670;14.260;2022-10-04T10:33:29;5.83;;;3.00;;
1779;SDS011;10019;46.670;14.260;2022-10-04T10:36:25;3.20;;;2.90;;
1779;SDS011;10019;46.670;14.260;2022-10-04T10:39:17;3.50;;;3.00;;
1779;SDS011;10019;46.670;14.260;2022-10-04T10:42:17;4.70;;;3.00;;
1779;SDS011;10019;46.670;14.260;2022-10-04T10:45:06;3.33;;;3.03;;
1779;SDS011;10019;46.670;14.260;2022-10-04T10:47:52;3.53;;;2.90;;
1779;SDS011;10019;46.670;14.260;2022-10-04T10:53:38;2.50;;;2.07;;
1779;SDS011;10019;46.670;14.260;2022-10-04T10:56:37;3.03;;;2.67;;
1779;SDS011;10019;46.670;14.260;2022-10-04T11:02:53;3.03;;;2.63;;
1779;SDS011;10019;46.670;14.260;2022-10-04T11:09:04;4.50;;;2.90;;
1779;SDS011;10019;46.670;14.260;2022-10-04T11:18:12;3.70;;;2.90;;
1779;SDS011;10019;46.670;14.260;2022-10-04T11:21:04;2.97;;;2.77;;
1779;SDS011;10019;46.670;14.260;2022-10-04T11:24:00;4.53;;;2.47;;
1779;SDS011;10019;46.670;14.260;2022-10-04T11:29:56;3.27;;;2.57;;
1779;SDS011;10019;46.670;14.260;2022-10-04T11:38:42;3.60;;;2.80;;
1779;SDS011;10019;46.670;14.260;2022-10-04T11:41:24;5.63;;;2.90;;
1779;SDS011;10019;46.670;14.260;2022-10-04T11:44:10;2.70;;;2.50;;
1779;SDS011;10019;46.670;14.260;2022-10-04T11:47:04;5.73;;;2.83;;
1779;SDS011;10019;46.670;14.260;2022-10-04T11:49:43;2.50;;;2.30;;
1779;SDS011;10019;46.670;14.260;2022-10-04T11:52:34;3.80;;;2.30;;
1779;SDS011;10019;46.670;14.260;2022-10-04T11:55:30;2.80;;;2.60;;
1779;SDS011;10019;46.670;14.260;2022-10-04T11:58:15;2.60;;;2.40;;
1779;SDS011;10019;46.670;14.260;2022-10-04T12:00:57;2.70;;;2.30;;
1779;SDS011;10019;46.670;14.260;2022-10-04T12:03:58;2.30;;;2.10;;
1779;SDS011;10019;46.670;14.260;2022-10-04T12:06:43;6.00;;;2.70;;
1779;SDS011;10019;46.670;14.260;2022-10-04T12:09:23;3.00;;;2.70;;
1779;SDS011;10019;46.670;14.260;2022-10-04T12:15:15;3.33;;;2.67;;
1779;SDS011;10019;46.670;14.260;2022-10-04T12:18:14;3.53;;;3.20;;
1779;SDS011;10019;46.670;14.260;2022-10-04T12:20:57;3.23;;;2.70;;
1779;SDS011;10019;46.670;14.260;2022-10-04T12:23:45;4.07;;;3.03;;
1779;SDS011;10019;46.670;14.260;2022-10-04T12:32:56;3.50;;;2.50;;
1779;SDS011;10019;46.670;14.260;2022-10-04T12:35:39;3.70;;;2.43;;
1779;SDS011;10019;46.670;14.260;2022-10-04T12:38:24;3.30;;;3.00;;
1779;SDS011;10019;46.670;14.260;2022-10-04T12:41:22;3.73;;;2.60;;
1779;SDS011;10019;46.670;14.260;2022-10-04T12:44:03;4.23;;;2.70;;
1779;SDS011;10019;46.670;14.260;2022-10-04T12:46:47;4.33;;;3.37;;
1779;SDS011;10019;46.670;14.260;2022-10-04T12:49:28;3.00;;;2.70;;
1779;SDS011;10019;46.670;14.260;2022-10-04T12:52:07;4.07;;;2.63;;
1779;SDS011;10019;46.670;14.260;2022-10-04T12:54:42;2.40;;;2.20;;
1779;SDS011;10019;46.670;14.260;2022-10-04T12:57:24;3.10;;;2.77;;
1779;SDS011;10019;46.670;14.260;2022-10-04T13:00:05;2.73;;;2.40;;
1779;SDS011;10019;46.670;14.260;2022-10-04T13:02:59;4.00;;;2.63;;
1779;SDS011;10019;46.670;14.260;2022-10-04T13:05:40;2.60;;;2.40;;
1779;SDS011;10019;46.670;14.260;2022-10-04T13:08:28;2.87;;;2.67;;
1779;SDS011;10019;46.670;14.260;2022-10-04T13:11:23;2.93;;;2.60;;
1779;SDS011;10019;46.670;14.260;2022-10-04T13:14:11;3.70;;;3.03;;
1779;SDS011;10019;46.670;14.260;2022-10-04T13:16:58;3.30;;;2.67;;
1779;SDS011;10019;46.670;14.260;2022-10-04T13:19:36;3.70;;;2.50;;
1779;SDS011;10019;46.670;14.260;2022-10-04T13:22:15;2.63;;;2.43;;
1779;SDS011;10019;46.670;14.260;2022-10-04T13:25:01;2.50;;;2.30;;
1779;SDS011;10019;46.670;14.260;2022-10-04T13:27:45;2.80;;;2.47;;
1779;SDS011;10019;46.670;14.260;2022-10-04T13:30:20;3.17;;;2.87;;
1779;SDS011;10019;46.670;14.260;2022-10-04T13:32:56;2.60;;;2.40;;
1779;SDS011;10019;46.670;14.260;2022-10-04T13:35:35;4.73;;;2.63;;
1779;SDS011;10019;46.670;14.260;2022-10-04T13:38:23;3.70;;;2.87;;
1779;SDS011;10019;46.670;14.260;2022-10-04T13:41:14;3.03;;;2.70;;
1779;SDS011;10019;46.670;14.260;2022-10-04T13:46:57;3.80;;;2.67;;
1779;SDS011;10019;46.670;14.260;2022-10-04T13:49:39;5.73;;;2.60;;
1779;SDS011;10019;46.670;14.260;2022-10-04T13:52:25;2.77;;;2.50;;
1779;SDS011;10019;46.670;14.260;2022-10-04T13:55:21;4.30;;;2.70;;
1779;SDS011;10019;46.670;14.260;2022-10-04T13:58:16;5.00;;;2.90;;
1779;SDS011;10019;46.670;14.260;2022-10-04T14:01:03;4.40;;;3.30;;
1779;SDS011;10019;46.670;14.260;2022-10-04T14:03:44;4.07;;;3.03;;
1779;SDS011;10019;46.670;14.260;2022-10-04T14:09:34;2.63;;;2.40;;
1779;SDS011;10019;46.670;14.260;2022-10-04T14:12:36;2.70;;;2.50;;
1779;SDS011;10019;46.670;14.260;2022-10-04T14:15:28;2.80;;;2.50;;
1779;SDS011;10019;46.670;14.260;2022-10-04T14:18:26;2.87;;;2.60;;
1779;SDS011;10019;46.670;14.260;2022-10-04T14:24:28;2.60;;;2.40;;
1779;SDS011;10019;46.670;14.260;2022-10-04T14:30:47;3.30;;;2.43;;
1779;SDS011;10019;46.670;14.260;2022-10-04T14:36:27;2.87;;;2.60;;
1779;SDS011;10019;46.670;14.260;2022-10-04T14:39:11;3.20;;;2.90;;
1779;SDS011;10019;46.670;14.260;2022-10-04T14:45:20;2.93;;;2.73;;
1779;SDS011;10019;46.670;14.260;2022-10-04T14:51:08;5.70;;;2.63;;
1779;SDS011;10019;46.670;14.260;2022-10-04T14:53:48;7.90;;;3.03;;
1779;SDS011;10019;46.670;14.260;2022-10-04T14:59:29;3.83;;;2.97;;
1779;SDS011;10019;46.670;14.260;2022-10-04T15:02:22;2.80;;;2.60;;
1779;SDS011;10019;46.670;14.260;2022-10-04T15:08:37;5.63;;;2.83;;
1779;SDS011;10019;46.670;14.260;2022-10-04T15:11:33;3.93;;;2.77;;
1779;SDS011;10019;46.670;14.260;2022-10-04T15:14:22;3.90;;;2.77;;
1779;SDS011;10019;46.670;14.260;2022-10-04T15:17:08;3.60;;;2.87;;
1779;SDS011;10019;46.670;14.260;2022-10-04T15:19:56;2.60;;;2.40;;
1779;SDS011;10019;46.670;14.260;2022-10-04T15:22:37;2.97;;;2.77;;
1779;SDS011;10019;46.670;14.260;2022-10-04T15:28:24;3.17;;;2.50;;
1779;SDS011;10019;46.670;14.260;2022-10-04T15:31:04;10.80;;;9.70;;
1779;SDS011;10019;46.670;14.260;2022-10-04T15:33:44;5.30;;;3.87;;
1779;SDS011;10019;46.670;14.260;2022-10-04T15:39:34;3.70;;;3.10;;
1779;SDS011;10019;46.670;14.260;2022-10-04T15:42:12;3.90;;;2.90;;
1779;SDS011;10019;46.670;14.260;2022-10-04T15:44:58;3.03;;;2.70;;
1779;SDS011;10019;46.670;14.260;2022-10-04T15:47:36;2.90;;;2.60;;
1779;SDS011;10019;46.670;14.260;2022-10-04T15:50:47;3.77;;;3.10;;
1779;SDS011;10019;46.670;14.260;2022-10-04T15:53:38;4.53;;;3.40;;
1779;SDS011;10019;46.670;14.260;2022-10-04T15:56:20;3.20;;;2.80;;
1779;SDS011;10019;46.670;14.260;2022-10-04T16:02:06;3.13;;;2.93;;
1779;SDS011;10019;46.670;14.260;2022-10-04T16:04:56;8.53;;;3.33;;
1779;SDS011;10019;46.670;14.260;2022-10-04T16:07:40;9.90;;;3.40;;
1779;SDS011;10019;46.670;14.260;2022-10-04T16:10:29;3.00;;;2.70;;
1779;SDS011;10019;46.670;14.260;2022-10-04T16:13:24;3.30;;;3.00;;
1779;SDS011;10019;46.670;14.260;2022-10-04T16:19:14;3.17;;;2.87;;
1779;SDS011;10019;46.670;14.260;2022-10-04T16:21:51;4.03;;;3.20;;
1779;SDS011;10019;46.670;14.260;2022-10-04T16:24:41;6.63;;;3.63;;
1779;SDS011;10019;46.670;14.260;2022-10-04T16:27:39;3.40;;;3.10;;
1779;SDS011;10019;46.670;14.260;2022-10-04T16:30:16;4.07;;;2.90;;
1779;SDS011;10019;46.670;14.260;2022-10-04T16:33:01;3.03;;;2.70;;
1779;SDS011;10019;46.670;14.260;2022-10-04T16:35:38;9.17;;;3.03;;
1779;SDS011;10019;46.670;14.260;2022-10-04T16:38:19;3.40;;;3.10;;
1779;SDS011;10019;46.670;14.260;2022-10-04T16:41:06;3.10;;;2.87;;
1779;SDS011;10019;46.670;14.260;2022-10-04T16:43:47;4.23;;;3.30;;
1779;SDS011;10019;46.670;14.260;2022-10-04T16:46:24;3.40;;;3.00;;
1779;SDS011;10019;46.670;14.260;2022-10-04T16:49:01;6.03;;;3.13;;
1779;SDS011;10019;46.670;14.260;2022-10-04T16:51:58;4.50;;;3.40;;
1779;SDS011;10019;46.670;14.260;2022-10-04T16:57:42;4.53;;;3.13;;
1779;SDS011;10019;46.670;14.260;2022-10-04T17:00:24;5.53;;;3.40;;
1779;SDS011;10019;46.670;14.260;2022-10-04T17:03:09;3.30;;;3.00;;
1779;SDS011;10019;46.670;14.260;2022-10-04T17:05:55;4.43;;;4.00;;
1779;SDS011;10019;46.670;14.260;2022-10-04T17:08:45;4.20;;;3.50;;
1779;SDS011;10019;46.670;14.260;2022-10-04T17:14:34;4.03;;;3.63;;
1779;SDS011;10019;46.670;14.260;2022-10-04T17:17:21;3.30;;;2.90;;
1779;SDS011;10019;46.670;14.260;2022-10-04T17:19:55;4.63;;;3.47;;
1779;SDS011;10019;46.670;14.260;2022-10-04T17:22:36;5.37;;;3.60;;
1779;SDS011;10019;46.670;14.260;2022-10-04T17:25:17;4.07;;;3.20;;
1779;SDS011;10019;46.670;14.260;2022-10-04T17:27:57;3.73;;;3.30;;
1779;SDS011;10019;46.670;14.260;2022-10-04T17:30:43;6.70;;;4.30;;
1779;SDS011;10019;46.670;14.260;2022-10-04T17:33:19;5.13;;;4.50;;
1779;SDS011;10019;46.670;14.260;2022-10-04T17:35:57;7.87;;;4.17;;
1779;SDS011;10019;46.670;14.260;2022-10-04T17:38:35;7.67;;;4.70;;
1779;SDS011;10019;46.670;14.260;2022-10-04T17:41:15;4.90;;;4.40;;
1779;SDS011;10019;46.670;14.260;2022-10-04T17:44:03;5.90;;;4.10;;
1779;SDS011;10019;46.670;14.260;2022-10-04T17:46:45;10.10;;;4.40;;
1779;SDS011;10019;46.670;14.260;2022-10-04T17:49:20;10.70;;;4.10;;
1779;SDS011;10019;46.670;14.260;2022-10-04T17:52:16;5.00;;;4.00;;
1779;SDS011;10019;46.670;14.260;2022-10-04T17:55:10;5.00;;;4.50;;
1779;SDS011;10019;46.670;14.260;2022-10-04T17:57:48;4.60;;;4.10;;
1779;SDS011;10019;46.670;14.260;2022-10-04T18:00:22;5.63;;;4.70;;
1779;SDS011;10019;46.670;14.260;2022-10-04T18:03:09;5.13;;;4.57;;
1779;SDS011;10019;46.670;14.260;2022-10-04T18:05:45;5.40;;;4.60;;
1779;SDS011;10019;46.670;14.260;2022-10-04T18:08:20;11.17;;;4.13;;